臺東航空站 - ATIS

METAR RCFN 201230Z VRB02KT 9999 FEW025 BKN070 23/19 Q1016 NOSIG RMK A3002=

站台狀態:Offline
最後更新:2019-10-21 03:00:02